createdAt,value
2018-08-20T00:01:28.979Z,19.39
2018-08-20T00:04:00.328Z,19.30
2018-08-20T00:06:34.235Z,19.34
2018-08-20T00:09:03.351Z,19.35
2018-08-20T00:11:32.013Z,19.30
2018-08-20T00:14:00.704Z,19.19
2018-08-20T00:16:29.491Z,19.34
2018-08-20T00:18:58.199Z,19.37
2018-08-20T00:21:27.312Z,19.20
2018-08-20T00:23:56.179Z,19.26
2018-08-20T00:26:26.039Z,19.33
2018-08-20T00:28:55.126Z,19.41
2018-08-20T00:31:24.618Z,19.34
2018-08-20T00:33:53.860Z,19.18
2018-08-20T00:36:22.928Z,18.99
2018-08-20T00:38:51.667Z,19.06
2018-08-20T00:41:20.410Z,18.97
2018-08-20T00:43:49.222Z,18.91
2018-08-20T00:46:17.879Z,18.74
2018-08-20T00:48:47.043Z,18.81
2018-08-20T00:51:15.793Z,18.84
2018-08-20T00:53:44.708Z,18.86
2018-08-20T00:56:13.550Z,18.91
2018-08-20T00:58:42.502Z,18.99
2018-08-20T01:01:11.467Z,18.97
2018-08-20T01:03:40.461Z,18.93
2018-08-20T01:06:09.382Z,19.20
2018-08-20T01:08:38.114Z,19.34
2018-08-20T01:11:07.582Z,19.43
2018-08-20T01:13:36.363Z,19.39
2018-08-20T01:16:05.021Z,19.03
2018-08-20T01:18:33.824Z,19.15
2018-08-20T01:21:03.042Z,19.42
2018-08-20T01:23:31.928Z,19.44
2018-08-20T01:26:00.847Z,19.41
2018-08-20T01:28:29.604Z,19.42
2018-08-20T01:30:58.376Z,19.49
2018-08-20T01:33:27.295Z,19.47
2018-08-20T01:35:56.222Z,19.36
2018-08-20T01:38:25.210Z,19.43
2018-08-20T01:40:53.802Z,19.55
2018-08-20T01:43:22.652Z,19.60
2018-08-20T01:45:51.367Z,19.47
2018-08-20T01:48:20.249Z,19.39
2018-08-20T01:50:49.005Z,19.40
2018-08-20T01:53:17.875Z,19.24
2018-08-20T01:55:46.693Z,18.98
2018-08-20T01:58:15.345Z,18.86
2018-08-20T02:00:44.250Z,18.77
2018-08-20T02:03:13.039Z,18.64
2018-08-20T02:05:42.095Z,18.62
2018-08-20T02:08:11.035Z,18.51
2018-08-20T02:10:39.854Z,18.43
2018-08-20T02:13:08.564Z,18.31
2018-08-20T02:15:38.110Z,18.49
2018-08-20T02:18:08.288Z,18.49
2018-08-20T02:20:37.304Z,18.27
2018-08-20T02:23:06.354Z,18.28
2018-08-20T02:25:35.074Z,18.39
2018-08-20T02:28:04.131Z,18.31
2018-08-20T02:30:33.303Z,18.24
2018-08-20T02:33:02.546Z,18.14
2018-08-20T02:35:31.277Z,16.41
2018-08-20T02:38:00.142Z,17.75
2018-08-20T02:40:29.146Z,17.93
2018-08-20T02:42:57.966Z,18.05
2018-08-20T02:45:26.726Z,17.96
2018-08-20T02:47:55.374Z,18.17
2018-08-20T02:50:24.290Z,18.47
2018-08-20T02:52:53.356Z,18.64
2018-08-20T02:55:22.070Z,18.59
2018-08-20T02:57:50.750Z,18.53
2018-08-20T03:00:19.581Z,18.54
2018-08-20T03:02:48.472Z,18.55
2018-08-20T03:05:17.178Z,18.46
2018-08-20T03:07:46.070Z,18.45
2018-08-20T03:10:14.836Z,18.39
2018-08-20T03:12:43.530Z,18.43
2018-08-20T03:15:12.421Z,18.30
2018-08-20T03:17:41.255Z,18.27
2018-08-20T03:20:10.051Z,17.98
2018-08-20T03:22:38.975Z,17.88
2018-08-20T03:25:08.375Z,17.84
2018-08-20T03:27:37.426Z,17.85
2018-08-20T03:30:07.276Z,17.76
2018-08-20T03:32:36.251Z,17.62
2018-08-20T03:35:06.969Z,17.70
2018-08-20T03:37:35.863Z,17.76
2018-08-20T03:40:05.411Z,17.56
2018-08-20T03:42:34.144Z,17.71
2018-08-20T03:45:02.921Z,17.73
2018-08-20T03:47:32.027Z,17.69
2018-08-20T03:50:01.245Z,17.82
2018-08-20T03:52:30.402Z,17.77
2018-08-20T03:54:59.388Z,17.75
2018-08-20T03:57:28.120Z,17.73
2018-08-20T03:59:57.030Z,17.98
2018-08-20T04:02:26.145Z,18.18
2018-08-20T04:04:55.121Z,18.04
2018-08-20T04:07:23.985Z,18.08
2018-08-20T04:09:52.706Z,17.91
2018-08-20T04:12:21.338Z,18.13
2018-08-20T04:14:50.118Z,18.25
2018-08-20T04:17:19.170Z,18.33
2018-08-20T04:19:48.275Z,18.47
2018-08-20T04:22:17.359Z,18.60
2018-08-20T04:24:46.111Z,18.81
2018-08-20T04:27:14.946Z,18.94
2018-08-20T04:29:43.691Z,18.98
2018-08-20T04:32:12.505Z,19.07
2018-08-20T04:34:41.494Z,19.18
2018-08-20T04:37:10.703Z,19.21
2018-08-20T04:39:39.696Z,17.40
2018-08-20T04:42:08.448Z,19.41
2018-08-20T04:44:37.298Z,19.40
2018-08-20T04:47:06.302Z,19.49
2018-08-20T04:49:35.221Z,19.71
2018-08-20T04:52:04.122Z,19.78
2018-08-20T04:54:32.855Z,19.97
2018-08-20T04:57:01.939Z,20.04
2018-08-20T04:59:31.138Z,20.02
2018-08-20T05:02:00.411Z,20.14
2018-08-20T05:04:29.065Z,20.23
2018-08-20T05:06:57.803Z,20.67
2018-08-20T05:09:26.920Z,20.63
2018-08-20T05:11:55.710Z,20.69
2018-08-20T05:14:24.486Z,20.87
2018-08-20T05:16:53.679Z,20.93
2018-08-20T05:19:22.958Z,20.97
2018-08-20T05:21:51.986Z,20.93
2018-08-20T05:24:20.740Z,20.91
2018-08-20T05:26:49.513Z,21.08
2018-08-20T05:29:18.314Z,21.32
2018-08-20T05:31:47.370Z,21.45
2018-08-20T05:34:16.538Z,21.68
2018-08-20T05:36:45.487Z,21.68
2018-08-20T05:39:14.580Z,21.69
2018-08-20T05:41:43.265Z,21.90
2018-08-20T05:44:11.958Z,22.02
2018-08-20T05:46:40.861Z,22.04
2018-08-20T05:49:11.741Z,22.06
2018-08-20T05:51:40.876Z,22.22
2018-08-20T05:54:09.931Z,22.19
2018-08-20T05:56:38.966Z,22.21
2018-08-20T05:59:08.001Z,22.49
2018-08-20T06:01:36.895Z,22.54
2018-08-20T06:04:06.099Z,22.61
2018-08-20T06:06:34.923Z,22.67
2018-08-20T06:09:04.827Z,22.76
2018-08-20T06:11:33.508Z,22.90
2018-08-20T06:14:02.613Z,22.82
2018-08-20T06:16:31.584Z,22.67
2018-08-20T06:19:00.399Z,22.81
2018-08-20T06:21:29.384Z,22.84
2018-08-20T06:23:58.224Z,23.00
2018-08-20T06:26:27.182Z,23.08
2018-08-20T06:28:56.288Z,22.99
2018-08-20T06:31:25.446Z,22.92
2018-08-20T06:33:54.752Z,22.71
2018-08-20T06:36:23.799Z,23.33
2018-08-20T06:38:52.415Z,23.00
2018-08-20T06:41:21.116Z,23.51
2018-08-20T06:43:50.189Z,23.25
2018-08-20T06:46:19.053Z,23.36
2018-08-20T06:48:48.171Z,23.49
2018-08-20T06:51:17.269Z,23.65
2018-08-20T06:53:46.103Z,23.49
2018-08-20T06:56:14.785Z,23.76
2018-08-20T06:58:43.698Z,23.93
2018-08-20T07:01:12.869Z,24.11
2018-08-20T07:03:42.122Z,24.45
2018-08-20T07:06:10.891Z,24.63
2018-08-20T07:08:39.986Z,24.71
2018-08-20T07:11:08.769Z,24.84
2018-08-20T07:13:38.007Z,24.72
2018-08-20T07:16:08.224Z,24.90
2018-08-20T07:21:33.486Z,25.28
2018-08-20T07:24:02.352Z,25.12
2018-08-20T07:26:31.178Z,25.48
2018-08-20T07:29:00.328Z,25.60
2018-08-20T07:31:29.482Z,25.81
2018-08-20T07:33:58.330Z,25.89
2018-08-20T07:36:27.150Z,25.70
2018-08-20T07:38:56.068Z,25.38
2018-08-20T07:41:25.244Z,25.71
2018-08-20T07:43:54.091Z,25.94
2018-08-20T07:46:23.122Z,26.24
2018-08-20T07:48:52.107Z,26.35
2018-08-20T07:51:21.182Z,26.48
2018-08-20T07:53:50.214Z,26.47
2018-08-20T07:56:19.202Z,26.74
2018-08-20T07:58:48.296Z,27.07
2018-08-20T08:01:17.460Z,27.26
2018-08-20T08:03:46.254Z,27.16
2018-08-20T08:06:15.294Z,27.16
2018-08-20T08:08:43.986Z,27.12
2018-08-20T08:11:12.700Z,27.50
2018-08-20T08:13:41.446Z,27.59
2018-08-20T08:16:10.435Z,27.61
2018-08-20T08:18:39.390Z,27.72
2018-08-20T08:21:08.338Z,27.93
2018-08-20T08:23:37.392Z,28.26
2018-08-20T08:26:06.807Z,28.25
2018-08-20T08:28:35.739Z,28.26
2018-08-20T08:31:04.760Z,28.16
2018-08-20T08:33:33.593Z,28.33
2018-08-20T08:36:02.466Z,28.35
2018-08-20T08:38:31.339Z,28.50
2018-08-20T08:41:01.014Z,28.57
2018-08-20T08:43:29.839Z,28.45
2018-08-20T08:45:59.085Z,28.61
2018-08-20T08:48:28.030Z,28.63
2018-08-20T08:50:56.932Z,28.83
2018-08-20T08:53:25.945Z,28.95
2018-08-20T08:55:54.908Z,29.09
2018-08-20T08:58:23.814Z,29.13
2018-08-20T09:00:52.693Z,29.06
2018-08-20T09:03:21.723Z,29.25
2018-08-20T09:05:50.527Z,29.39
2018-08-20T09:08:19.456Z,29.46
2018-08-20T09:10:48.255Z,29.69
2018-08-20T09:13:17.037Z,29.90
2018-08-20T09:15:46.180Z,30.18
2018-08-20T09:18:15.010Z,29.71
2018-08-20T09:20:43.900Z,30.09
2018-08-20T09:23:12.604Z,30.15
2018-08-20T09:25:41.543Z,30.47
2018-08-20T09:28:10.475Z,30.41
2018-08-20T09:30:39.515Z,30.46
2018-08-20T09:33:09.348Z,30.49
2018-08-20T09:35:38.358Z,30.55
2018-08-20T09:38:07.339Z,30.63
2018-08-20T09:40:36.374Z,30.76
2018-08-20T09:43:05.546Z,31.13
2018-08-20T09:45:34.231Z,31.12
2018-08-20T09:48:03.036Z,31.22
2018-08-20T09:50:31.705Z,31.58
2018-08-20T09:53:00.475Z,31.39
2018-08-20T09:55:29.257Z,31.42
2018-08-20T09:57:58.250Z,31.29
2018-08-20T10:00:32.187Z,31.42
2018-08-20T10:03:01.142Z,31.35
2018-08-20T10:05:30.056Z,31.28
2018-08-20T10:07:58.918Z,31.10
2018-08-20T10:10:27.901Z,31.02
2018-08-20T10:12:57.051Z,31.15
2018-08-20T10:15:26.127Z,31.14
2018-08-20T10:17:55.267Z,31.17
2018-08-20T10:20:24.059Z,31.09
2018-08-20T10:22:52.976Z,31.17
2018-08-20T10:25:21.722Z,31.20
2018-08-20T10:27:50.346Z,30.82
2018-08-20T10:30:19.213Z,30.97
2018-08-20T10:32:48.090Z,30.86
2018-08-20T10:35:17.212Z,30.98
2018-08-20T10:37:46.375Z,30.44
2018-08-20T10:40:14.919Z,30.69
2018-08-20T10:42:43.907Z,30.62
2018-08-20T10:45:18.473Z,30.60
2018-08-20T10:47:48.657Z,30.08
2018-08-20T10:50:19.442Z,30.28
2018-08-20T10:52:49.691Z,29.92
2018-08-20T10:55:18.403Z,29.64
2018-08-20T10:57:47.338Z,29.63
2018-08-20T11:00:16.833Z,29.43
2018-08-20T11:02:45.830Z,29.54
2018-08-20T11:05:17.348Z,29.52
2018-08-20T11:07:46.418Z,29.51
2018-08-20T11:10:15.235Z,29.66
2018-08-20T11:12:44.389Z,29.50
2018-08-20T11:15:13.463Z,29.79
2018-08-20T11:17:42.538Z,30.01
2018-08-20T11:20:14.082Z,30.05
2018-08-20T11:22:43.108Z,29.89
2018-08-20T11:25:12.592Z,29.78
2018-08-20T11:27:41.611Z,29.93
2018-08-20T11:30:12.693Z,30.22
2018-08-20T11:32:41.732Z,30.55
2018-08-20T11:35:11.322Z,30.72
2018-08-20T11:37:40.558Z,30.71
2018-08-20T11:40:10.055Z,30.38
2018-08-20T11:42:39.893Z,30.81
2018-08-20T11:45:11.369Z,30.16
2018-08-20T11:47:40.333Z,29.26
2018-08-20T11:50:09.398Z,27.89
2018-08-20T11:52:39.219Z,26.80
2018-08-20T11:55:08.582Z,25.74
2018-08-20T11:57:37.558Z,24.98
2018-08-20T12:00:08.544Z,24.99
2018-08-20T12:02:37.319Z,23.15
2018-08-20T12:05:06.851Z,22.51
2018-08-20T12:07:36.178Z,21.97
2018-08-20T12:10:05.892Z,21.99
2018-08-20T12:12:34.713Z,21.93
2018-08-20T12:15:03.590Z,21.63
2018-08-20T12:17:32.447Z,21.58
2018-08-20T12:20:01.335Z,21.91
2018-08-20T12:22:30.275Z,22.20
2018-08-20T12:24:59.162Z,22.30
2018-08-20T12:27:28.015Z,22.33
2018-08-20T12:29:57.061Z,22.43
2018-08-20T12:32:25.928Z,22.49
2018-08-20T12:34:54.748Z,22.55
2018-08-20T12:37:23.562Z,22.71
2018-08-20T12:39:52.589Z,22.85
2018-08-20T12:42:21.439Z,23.00
2018-08-20T12:44:50.151Z,23.16
2018-08-20T12:47:19.191Z,23.27
2018-08-20T12:49:48.344Z,23.37
2018-08-20T12:52:17.404Z,23.59
2018-08-20T12:54:46.270Z,23.80
2018-08-20T12:57:15.174Z,24.02
2018-08-20T12:59:44.223Z,24.14
2018-08-20T13:02:13.027Z,24.25
2018-08-20T13:04:41.715Z,24.67
2018-08-20T13:07:10.519Z,24.88
2018-08-20T13:09:39.325Z,25.11
2018-08-20T13:12:08.392Z,25.34
2018-08-20T13:14:37.468Z,25.57
2018-08-20T13:17:06.564Z,25.70
2018-08-20T13:19:36.148Z,25.89
2018-08-20T13:22:05.628Z,26.08
2018-08-20T13:24:34.791Z,26.36
2018-08-20T13:27:03.719Z,26.58
2018-08-20T13:29:32.847Z,26.17
2018-08-20T13:32:01.659Z,26.24
2018-08-20T13:34:30.679Z,26.59
2018-08-20T13:37:00.086Z,26.70
2018-08-20T13:39:28.959Z,27.02
2018-08-20T13:41:57.740Z,27.29
2018-08-20T13:44:26.896Z,27.30
2018-08-20T13:46:55.709Z,27.37
2018-08-20T13:49:25.015Z,27.56
2018-08-20T13:51:54.255Z,27.61
2018-08-20T13:54:23.432Z,27.69
2018-08-20T13:56:52.470Z,27.91
2018-08-20T13:59:23.129Z,27.78
2018-08-20T14:01:53.833Z,28.02
2018-08-20T14:04:27.949Z,27.97
2018-08-20T14:06:59.852Z,28.03
2018-08-20T14:09:28.696Z,28.21
2018-08-20T14:11:57.674Z,28.30
2018-08-20T14:14:26.498Z,28.18
2018-08-20T14:16:55.236Z,27.89
2018-08-20T14:19:24.151Z,28.25
2018-08-20T14:21:53.414Z,28.36
2018-08-20T14:24:22.468Z,28.47
2018-08-20T14:26:51.323Z,28.67
2018-08-20T14:29:20.393Z,28.73
2018-08-20T14:31:49.662Z,28.87
2018-08-20T14:34:18.410Z,28.71
2018-08-20T14:36:47.519Z,28.82
2018-08-20T14:39:16.395Z,28.97
2018-08-20T14:41:45.246Z,28.95
2018-08-20T14:44:13.997Z,29.02
2018-08-20T14:46:42.782Z,29.03
2018-08-20T14:49:11.742Z,29.01
2018-08-20T14:51:40.427Z,28.82
2018-08-20T14:54:09.339Z,28.74
2018-08-20T14:56:38.055Z,28.90
2018-08-20T14:59:07.010Z,28.36
2018-08-20T15:01:36.054Z,28.74
2018-08-20T15:04:05.189Z,28.59
2018-08-20T15:06:34.824Z,28.91
2018-08-20T15:09:03.784Z,28.90
2018-08-20T15:11:32.358Z,28.91
2018-08-20T15:14:01.154Z,28.94
2018-08-20T15:16:30.274Z,29.01
2018-08-20T15:18:59.205Z,29.14
2018-08-20T15:21:28.007Z,29.30
2018-08-20T15:23:56.797Z,29.40
2018-08-20T15:26:25.746Z,29.49
2018-08-20T15:28:54.890Z,29.64
2018-08-20T15:31:23.799Z,29.82
2018-08-20T15:33:52.744Z,30.04
2018-08-20T15:36:21.638Z,30.23
2018-08-20T15:38:50.797Z,30.11
2018-08-20T15:41:19.540Z,30.17
2018-08-20T15:43:48.287Z,30.58
2018-08-20T15:46:17.314Z,30.79
2018-08-20T15:48:46.371Z,31.05
2018-08-20T15:51:15.113Z,30.94
2018-08-20T15:53:44.301Z,30.98
2018-08-20T15:56:13.175Z,29.77
2018-08-20T15:58:42.297Z,30.93
2018-08-20T16:01:11.024Z,31.05
2018-08-20T16:03:39.961Z,31.04
2018-08-20T16:06:09.133Z,31.04
2018-08-20T16:08:38.538Z,30.83
2018-08-20T16:11:07.444Z,30.38
2018-08-20T16:13:36.242Z,30.65
2018-08-20T16:16:04.933Z,30.75
2018-08-20T16:18:33.815Z,30.92
2018-08-20T16:21:02.995Z,31.21
2018-08-20T16:23:31.873Z,31.52
2018-08-20T16:26:00.752Z,31.80
2018-08-20T16:28:29.817Z,31.96
2018-08-20T16:30:58.659Z,32.07
2018-08-20T16:33:27.580Z,32.37
2018-08-20T16:35:56.723Z,32.40
2018-08-20T16:38:25.666Z,32.43
2018-08-20T16:40:54.826Z,32.13
2018-08-20T16:43:23.584Z,31.74
2018-08-20T16:45:52.437Z,31.53
2018-08-20T16:48:21.208Z,31.37
2018-08-20T16:50:50.213Z,31.14
2018-08-20T16:53:19.251Z,30.84
2018-08-20T16:55:48.556Z,30.91
2018-08-20T16:58:17.434Z,30.93
2018-08-20T17:00:46.644Z,30.90
2018-08-20T17:03:15.531Z,30.63
2018-08-20T17:05:46.829Z,30.48
2018-08-20T17:08:23.571Z,29.52
2018-08-20T17:10:53.229Z,27.84
2018-08-20T17:13:22.020Z,28.17
2018-08-20T17:15:50.689Z,27.59
2018-08-20T17:18:19.426Z,27.13
2018-08-20T17:20:48.430Z,27.63
2018-08-20T17:23:21.856Z,27.09
2018-08-20T17:25:51.615Z,27.04
2018-08-20T17:28:22.061Z,26.78
2018-08-20T17:30:55.756Z,26.02
2018-08-20T17:33:25.067Z,24.94
2018-08-20T17:35:53.807Z,24.20
2018-08-20T17:38:22.815Z,24.08
2018-08-20T17:40:51.602Z,23.75
2018-08-20T17:43:20.562Z,23.71
2018-08-20T17:45:49.339Z,23.57
2018-08-20T17:48:25.175Z,23.52
2018-08-20T17:50:53.939Z,23.33
2018-08-20T17:53:23.086Z,22.81
2018-08-20T17:55:52.076Z,22.86
2018-08-20T17:58:21.178Z,23.14
2018-08-20T18:00:53.175Z,23.07
2018-08-20T18:03:27.308Z,22.63
2018-08-20T18:05:58.635Z,22.30
2018-08-20T18:08:28.786Z,22.15
2018-08-20T18:10:57.951Z,21.86
2018-08-20T18:13:40.534Z,21.78
2018-08-20T18:16:10.973Z,21.67
2018-08-20T18:18:40.739Z,21.80
2018-08-20T18:21:09.500Z,21.60
2018-08-20T18:23:38.611Z,21.50
2018-08-20T18:26:07.533Z,21.52
2018-08-20T18:28:42.356Z,21.42
2018-08-20T18:31:17.123Z,21.25
2018-08-20T18:33:46.400Z,21.31
2018-08-20T18:36:17.542Z,21.19
2018-08-20T18:39:05.910Z,21.10
2018-08-20T18:42:16.807Z,20.83
2018-08-20T18:44:47.194Z,20.55
2018-08-20T18:47:17.783Z,20.68
2018-08-20T18:49:52.591Z,20.58
2018-08-20T18:52:22.346Z,20.74
2018-08-20T18:54:52.497Z,20.54
2018-08-20T18:57:23.979Z,20.50
2018-08-20T18:59:53.437Z,20.52
2018-08-20T19:02:57.557Z,20.58
2018-08-20T19:05:26.814Z,20.44
2018-08-20T19:07:55.750Z,20.20
2018-08-20T19:10:28.795Z,20.27
2018-08-20T19:12:58.052Z,20.29
2018-08-20T19:15:38.151Z,20.22
2018-08-20T19:18:08.507Z,20.13
2018-08-20T19:20:37.529Z,20.11
2018-08-20T19:23:06.663Z,20.29
2018-08-20T19:25:35.405Z,20.18
2018-08-20T19:28:13.776Z,20.09
2018-08-20T19:30:42.747Z,20.02
2018-08-20T19:33:16.579Z,19.88
2018-08-20T19:35:45.856Z,20.04
2018-08-20T19:38:14.517Z,19.99
2018-08-20T19:40:43.605Z,20.17
2018-08-20T19:43:12.438Z,20.19
2018-08-20T19:45:43.364Z,19.97
2018-08-20T19:48:13.178Z,19.89
2018-08-20T19:50:42.130Z,19.90
2018-08-20T19:53:16.267Z,19.75
2018-08-20T19:55:45.595Z,19.75
2018-08-20T19:58:20.579Z,19.69
2018-08-20T20:01:01.536Z,19.62
2018-08-20T20:03:32.057Z,19.58
2018-08-20T20:06:01.540Z,19.44
2018-08-20T20:08:30.574Z,19.49
2018-08-20T20:10:59.499Z,19.41
2018-08-20T20:13:28.688Z,19.46
2018-08-20T20:15:57.913Z,19.38
2018-08-20T20:18:27.060Z,19.25
2018-08-20T20:20:56.110Z,19.28
2018-08-20T20:23:25.016Z,19.29
2018-08-20T20:25:54.034Z,19.27
2018-08-20T20:28:22.808Z,19.20
2018-08-20T20:30:51.770Z,19.12
2018-08-20T20:33:20.583Z,19.18
2018-08-20T20:35:49.454Z,19.12
2018-08-20T20:38:18.533Z,19.03
2018-08-20T20:40:47.559Z,19.22
2018-08-20T20:43:21.043Z,19.19
2018-08-20T20:45:50.228Z,19.07
2018-08-20T20:48:19.318Z,19.09
2018-08-20T20:50:48.311Z,19.06
2018-08-20T20:53:17.242Z,19.12
2018-08-20T20:55:46.325Z,19.01
2018-08-20T20:58:20.235Z,18.90
2018-08-20T21:00:49.606Z,18.88
2018-08-20T21:03:18.883Z,18.78
2018-08-20T21:05:47.917Z,18.78
2018-08-20T21:08:16.947Z,18.81
2018-08-20T21:10:50.305Z,18.96
2018-08-20T21:13:20.623Z,18.81
2018-08-20T21:15:58.319Z,18.83
2018-08-20T21:18:27.531Z,18.98
2018-08-20T21:20:56.195Z,18.97
2018-08-20T21:23:25.242Z,18.85
2018-08-20T21:25:54.383Z,19.03
2018-08-20T21:28:25.645Z,18.94
2018-08-20T21:30:54.822Z,18.58
2018-08-20T21:33:24.014Z,18.74
2018-08-20T21:35:52.648Z,18.95
2018-08-20T21:38:21.433Z,18.65
2018-08-20T21:40:50.171Z,18.70
2018-08-20T21:43:19.070Z,18.95
2018-08-20T21:45:47.999Z,18.72
2018-08-20T21:48:16.998Z,18.70
2018-08-20T21:50:46.047Z,18.55
2018-08-20T21:53:15.015Z,18.59
2018-08-20T21:55:44.144Z,18.65
2018-08-20T21:58:12.858Z,18.71
2018-08-20T22:00:42.112Z,18.48
2018-08-20T22:03:11.606Z,18.43
2018-08-20T22:05:40.614Z,18.43
2018-08-20T22:08:09.627Z,18.49
2018-08-20T22:10:38.318Z,18.45
2018-08-20T22:13:07.235Z,18.50
2018-08-20T22:15:36.094Z,18.43
2018-08-20T22:18:05.194Z,18.33
2018-08-20T22:20:33.931Z,18.44
2018-08-20T22:23:11.993Z,18.41
2018-08-20T22:25:33.166Z,18.20
2018-08-20T22:28:02.254Z,18.19
2018-08-20T22:30:31.288Z,18.28
2018-08-20T22:33:00.225Z,18.22
2018-08-20T22:35:29.228Z,18.24
2018-08-20T22:37:58.280Z,18.23
2018-08-20T22:40:27.135Z,18.10
2018-08-20T22:42:57.594Z,18.16
2018-08-20T22:45:26.441Z,18.15
2018-08-20T22:47:55.531Z,18.42
2018-08-20T22:50:24.214Z,18.52
2018-08-20T22:52:53.232Z,18.22
2018-08-20T22:55:22.789Z,18.24
2018-08-20T22:58:09.650Z,18.31
2018-08-20T23:00:38.814Z,18.09
2018-08-20T23:03:08.247Z,17.88
2018-08-20T23:05:37.422Z,18.43
2018-08-20T23:08:11.550Z,18.21
2018-08-20T23:10:42.549Z,18.09
2018-08-20T23:13:11.252Z,18.17
2018-08-20T23:15:40.179Z,18.00
2018-08-20T23:18:09.351Z,17.91
2018-08-20T23:20:38.111Z,17.91
2018-08-20T23:23:06.952Z,17.83
2018-08-20T23:25:36.246Z,17.62
2018-08-20T23:28:05.295Z,17.66
2018-08-20T23:30:34.126Z,17.60
2018-08-20T23:33:03.309Z,17.64
2018-08-20T23:35:32.400Z,17.62
2018-08-20T23:38:01.320Z,17.53
2018-08-20T23:40:30.090Z,17.46
2018-08-20T23:42:59.162Z,17.49
2018-08-20T23:45:28.050Z,17.60
2018-08-20T23:47:56.729Z,17.55
2018-08-20T23:50:25.479Z,17.44
2018-08-20T23:52:54.158Z,17.60
2018-08-20T23:55:23.479Z,17.92
2018-08-20T23:57:52.532Z,17.84
